createdAt,value
2023-05-14T00:00:02.331Z,37.91523165162657
2023-05-14T00:15:01.987Z,38.03543592045272
2023-05-14T00:30:01.636Z,38.25302222789933
2023-05-14T00:45:02.325Z,37.39006407838699
2023-05-14T01:00:01.956Z,37.35689215651479
2023-05-14T01:15:01.592Z,38.51091029404634
2023-05-14T01:30:02.278Z,37.82712430637462
2023-05-14T01:45:01.884Z,38.31760554660832
2023-05-14T02:00:01.521Z,38.84162916107749
2023-05-14T02:15:02.119Z,38.50584762011383
2023-05-14T02:30:01.753Z,38.20976598094651
2023-05-14T02:45:01.419Z,38.57998862083721
2023-05-14T03:00:02.225Z,39.21119101700899
2023-05-14T03:15:02.224Z,38.76229833492049
2023-05-14T03:30:01.873Z,38.267802786464564
2023-05-14T03:45:01.521Z,38.58626481187411
2023-05-14T04:00:02.180Z,38.04607264192081
2023-05-14T04:15:01.807Z,37.248527037997405
2023-05-14T04:30:01.468Z,36.06389156538885
2023-05-14T04:45:02.104Z,34.95401558000801
2023-05-14T05:00:01.853Z,35.025191068595255
2023-05-14T05:15:01.520Z,34.937406708578344
2023-05-14T05:30:02.174Z,33.96046993347232
2023-05-14T05:45:01.827Z,31.086863845262474
2023-05-14T06:00:01.476Z,29.48872997514648
2023-05-14T06:15:02.111Z,27.382224354887427
2023-05-14T06:30:01.762Z,25.8374239175448
2023-05-14T06:45:01.380Z,24.381396480099294
2023-05-14T07:00:03.768Z,21.627066439219604
2023-05-14T07:15:01.615Z,19.49364091848133
2023-05-14T07:30:01.328Z,20.243107917103615
2023-05-14T07:45:02.000Z,19.511991176373385
2023-05-14T08:00:01.635Z,19.37929421407596
2023-05-14T08:15:01.317Z,17.093905460654444
2023-05-14T08:30:02.003Z,17.03890466153216
2023-05-14T08:45:01.633Z,14.946830737740543
2023-05-14T09:00:01.304Z,15.23019665560102
2023-05-14T09:15:01.990Z,16.53628696381401
2023-05-14T09:30:01.661Z,15.829749972773936
2023-05-14T09:45:01.296Z,16.297016566246175
2023-05-14T10:00:01.908Z,16.166966298468775
2023-05-14T10:15:01.582Z,14.535391875861926
2023-05-14T10:30:01.265Z,13.779797260395954
2023-05-14T10:45:01.960Z,10.954958142227092
2023-05-14T11:00:01.772Z,12.99476108267086
2023-05-14T11:15:01.512Z,11.074676722777546
2023-05-14T11:30:01.157Z,12.81553056626625
2023-05-14T11:45:01.807Z,13.77090639062386
2023-05-14T12:00:01.444Z,13.952095515979583
2023-05-14T12:15:01.053Z,13.698074203112073
2023-05-14T12:30:13.011Z,11.669307328102496
2023-05-14T12:45:01.059Z,12.332372892664772
2023-05-14T13:00:01.678Z,12.889514828666176
2023-05-14T13:15:01.527Z,13.139187968012331
2023-05-14T13:30:02.332Z,13.686215165037181
2023-05-14T13:45:01.980Z,12.017164180331577
2023-05-14T14:00:01.543Z,20.28049546382934
2023-05-14T14:15:02.199Z,17.480094335758043
2023-05-14T14:30:01.902Z,22.437441260530626
2023-05-14T14:45:01.525Z,20.588877787242808
2023-05-14T15:00:02.811Z,18.75956685137453
2023-05-14T15:15:01.815Z,22.837022432150714
2023-05-14T15:30:01.641Z,24.661669008108547
2023-05-14T15:45:02.322Z,22.945854455796518
2023-05-14T16:00:01.976Z,23.672515330774488
2023-05-14T16:15:01.618Z,25.195208482204972
2023-05-14T16:30:02.292Z,26.534155399945398
2023-05-14T16:45:01.931Z,27.356127402144278
2023-05-14T17:00:01.634Z,27.50164725418791
2023-05-14T17:15:05.186Z,27.476766936982056
2023-05-14T17:30:02.223Z,27.80351923794404
2023-05-14T17:45:01.964Z,29.250858152185724
2023-05-14T18:00:01.648Z,30.617884087896098
2023-05-14T18:15:02.270Z,30.812287548402995
2023-05-14T18:30:01.962Z,30.88763387193874
2023-05-14T18:45:01.660Z,32.71452384859907
2023-05-14T19:00:02.301Z,33.214365575556165
2023-05-14T19:15:01.933Z,33.497092425090955
2023-05-14T19:30:01.545Z,33.48162179882533
2023-05-14T19:45:02.199Z,33.66621950200857
2023-05-14T20:00:01.773Z,33.854150662744395
2023-05-14T20:15:02.407Z,34.00017790849762
2023-05-14T20:30:02.051Z,34.225753805296854
2023-05-14T20:45:01.649Z,33.86942967482593
2023-05-14T21:00:02.343Z,33.715182128426555
2023-05-14T21:15:02.021Z,34.44075731668872
2023-05-14T21:30:01.684Z,34.38386315926218
2023-05-14T21:45:02.336Z,35.10680988092804
2023-05-14T22:00:01.956Z,34.750220690097684
2023-05-14T22:15:01.633Z,34.82764372687798
2023-05-14T22:30:02.306Z,34.569366049159214
2023-05-14T22:45:01.996Z,35.22119918570933
2023-05-14T23:00:01.622Z,34.54014206821513
2023-05-14T23:15:02.284Z,34.17665364329327
2023-05-14T23:30:01.926Z,34.678460196924185
2023-05-14T23:45:01.586Z,34.41226703640064
